sensor_id;sensor_type;location;lat;lon;timestamp;P1;durP1;ratioP1;P2;durP2;ratioP2
8675;SDS011;4375;52.486;13.424;2023-06-22T00:01:50;25.40;;;11.73;;
8675;SDS011;4375;52.486;13.424;2023-06-22T00:04:16;24.90;;;12.47;;
8675;SDS011;4375;52.486;13.424;2023-06-22T00:06:41;27.33;;;10.03;;
8675;SDS011;4375;52.486;13.424;2023-06-22T00:09:07;28.97;;;11.27;;
8675;SDS011;4375;52.486;13.424;2023-06-22T00:11:33;23.83;;;11.10;;
8675;SDS011;4375;52.486;13.424;2023-06-22T00:14:02;28.53;;;11.30;;
8675;SDS011;4375;52.486;13.424;2023-06-22T00:16:28;25.93;;;12.40;;
8675;SDS011;4375;52.486;13.424;2023-06-22T00:18:54;24.63;;;12.30;;
8675;SDS011;4375;52.486;13.424;2023-06-22T00:21:20;25.60;;;11.50;;
8675;SDS011;4375;52.486;13.424;2023-06-22T00:23:46;23.30;;;10.87;;
8675;SDS011;4375;52.486;13.424;2023-06-22T00:26:12;26.30;;;11.47;;
8675;SDS011;4375;52.486;13.424;2023-06-22T00:28:38;25.87;;;11.20;;
8675;SDS011;4375;52.486;13.424;2023-06-22T00:31:04;24.03;;;9.90;;
8675;SDS011;4375;52.486;13.424;2023-06-22T00:33:30;30.87;;;12.20;;
8675;SDS011;4375;52.486;13.424;2023-06-22T00:35:56;26.97;;;12.27;;
8675;SDS011;4375;52.486;13.424;2023-06-22T00:38:22;26.90;;;12.90;;
8675;SDS011;4375;52.486;13.424;2023-06-22T00:40:47;28.23;;;11.80;;
8675;SDS011;4375;52.486;13.424;2023-06-22T00:43:13;28.30;;;11.40;;
8675;SDS011;4375;52.486;13.424;2023-06-22T00:45:39;27.13;;;11.37;;
8675;SDS011;4375;52.486;13.424;2023-06-22T00:48:05;24.73;;;10.00;;
8675;SDS011;4375;52.486;13.424;2023-06-22T00:50:32;24.57;;;10.30;;
8675;SDS011;4375;52.486;13.424;2023-06-22T00:52:59;26.23;;;10.30;;
8675;SDS011;4375;52.486;13.424;2023-06-22T00:55:43;23.97;;;10.40;;
8675;SDS011;4375;52.486;13.424;2023-06-22T00:58:12;27.70;;;10.50;;
8675;SDS011;4375;52.486;13.424;2023-06-22T01:00:38;25.40;;;10.77;;
8675;SDS011;4375;52.486;13.424;2023-06-22T01:03:05;24.03;;;10.93;;
8675;SDS011;4375;52.486;13.424;2023-06-22T01:05:33;24.57;;;10.23;;
8675;SDS011;4375;52.486;13.424;2023-06-22T01:11:07;26.67;;;11.80;;
8675;SDS011;4375;52.486;13.424;2023-06-22T01:18:52;29.47;;;12.40;;
8675;SDS011;4375;52.486;13.424;2023-06-22T01:21:21;28.00;;;11.40;;
8675;SDS011;4375;52.486;13.424;2023-06-22T01:29:23;31.20;;;11.80;;
8675;SDS011;4375;52.486;13.424;2023-06-22T01:31:51;24.40;;;11.47;;
8675;SDS011;4375;52.486;13.424;2023-06-22T01:34:21;25.27;;;12.30;;
8675;SDS011;4375;52.486;13.424;2023-06-22T01:36:48;28.70;;;12.30;;
8675;SDS011;4375;52.486;13.424;2023-06-22T01:39:15;26.10;;;12.33;;
8675;SDS011;4375;52.486;13.424;2023-06-22T01:41:41;27.93;;;13.70;;
8675;SDS011;4375;52.486;13.424;2023-06-22T01:44:08;26.73;;;13.57;;
8675;SDS011;4375;52.486;13.424;2023-06-22T01:46:35;29.90;;;13.67;;
8675;SDS011;4375;52.486;13.424;2023-06-22T01:49:02;26.73;;;12.63;;
8675;SDS011;4375;52.486;13.424;2023-06-22T01:51:29;27.30;;;13.10;;
8675;SDS011;4375;52.486;13.424;2023-06-22T01:53:55;28.23;;;13.80;;
8675;SDS011;4375;52.486;13.424;2023-06-22T01:56:21;27.37;;;13.93;;
8675;SDS011;4375;52.486;13.424;2023-06-22T01:58:52;29.23;;;14.43;;
8675;SDS011;4375;52.486;13.424;2023-06-22T02:01:31;30.67;;;14.70;;
8675;SDS011;4375;52.486;13.424;2023-06-22T02:04:06;29.37;;;13.47;;
8675;SDS011;4375;52.486;13.424;2023-06-22T02:06:38;27.83;;;14.10;;
8675;SDS011;4375;52.486;13.424;2023-06-22T02:09:11;30.90;;;15.93;;
8675;SDS011;4375;52.486;13.424;2023-06-22T02:11:41;29.67;;;14.93;;
8675;SDS011;4375;52.486;13.424;2023-06-22T02:14:08;28.63;;;14.67;;
8675;SDS011;4375;52.486;13.424;2023-06-22T02:16:35;26.60;;;13.80;;
8675;SDS011;4375;52.486;13.424;2023-06-22T02:19:01;29.93;;;15.00;;
8675;SDS011;4375;52.486;13.424;2023-06-22T02:21:31;29.07;;;15.07;;
8675;SDS011;4375;52.486;13.424;2023-06-22T02:23:57;28.00;;;15.50;;
8675;SDS011;4375;52.486;13.424;2023-06-22T02:26:23;29.63;;;14.10;;
8675;SDS011;4375;52.486;13.424;2023-06-22T02:28:50;28.60;;;14.13;;
8675;SDS011;4375;52.486;13.424;2023-06-22T02:31:16;28.80;;;15.33;;
8675;SDS011;4375;52.486;13.424;2023-06-22T02:33:42;29.90;;;15.47;;
8675;SDS011;4375;52.486;13.424;2023-06-22T02:36:08;29.93;;;14.93;;
8675;SDS011;4375;52.486;13.424;2023-06-22T02:38:37;27.73;;;14.83;;
8675;SDS011;4375;52.486;13.424;2023-06-22T02:41:05;30.17;;;16.27;;
8675;SDS011;4375;52.486;13.424;2023-06-22T02:43:31;33.73;;;15.20;;
8675;SDS011;4375;52.486;13.424;2023-06-22T02:45:57;32.00;;;15.00;;
8675;SDS011;4375;52.486;13.424;2023-06-22T02:48:23;26.40;;;14.43;;
8675;SDS011;4375;52.486;13.424;2023-06-22T02:50:48;33.33;;;16.07;;
8675;SDS011;4375;52.486;13.424;2023-06-22T02:53:14;29.07;;;15.37;;
8675;SDS011;4375;52.486;13.424;2023-06-22T02:55:39;30.23;;;15.00;;
8675;SDS011;4375;52.486;13.424;2023-06-22T02:58:05;29.33;;;15.60;;
8675;SDS011;4375;52.486;13.424;2023-06-22T03:00:31;28.10;;;15.07;;
8675;SDS011;4375;52.486;13.424;2023-06-22T03:02:57;31.87;;;15.23;;
8675;SDS011;4375;52.486;13.424;2023-06-22T03:05:23;30.10;;;15.83;;
8675;SDS011;4375;52.486;13.424;2023-06-22T03:07:49;29.83;;;14.60;;
8675;SDS011;4375;52.486;13.424;2023-06-22T03:10:15;29.50;;;15.40;;
8675;SDS011;4375;52.486;13.424;2023-06-22T03:12:42;31.13;;;16.67;;
8675;SDS011;4375;52.486;13.424;2023-06-22T03:15:12;30.73;;;14.40;;
8675;SDS011;4375;52.486;13.424;2023-06-22T03:17:38;30.30;;;15.03;;
8675;SDS011;4375;52.486;13.424;2023-06-22T03:20:05;27.57;;;13.90;;
8675;SDS011;4375;52.486;13.424;2023-06-22T03:22:35;30.97;;;15.47;;
8675;SDS011;4375;52.486;13.424;2023-06-22T03:25:02;30.07;;;14.50;;
8675;SDS011;4375;52.486;13.424;2023-06-22T03:27:28;30.93;;;14.23;;
8675;SDS011;4375;52.486;13.424;2023-06-22T03:29:53;26.50;;;13.40;;
8675;SDS011;4375;52.486;13.424;2023-06-22T03:32:19;28.47;;;14.10;;
8675;SDS011;4375;52.486;13.424;2023-06-22T03:34:44;30.03;;;14.00;;
8675;SDS011;4375;52.486;13.424;2023-06-22T03:37:16;26.47;;;12.70;;
8675;SDS011;4375;52.486;13.424;2023-06-22T03:39:41;25.30;;;11.63;;
8675;SDS011;4375;52.486;13.424;2023-06-22T03:42:07;27.67;;;13.13;;
8675;SDS011;4375;52.486;13.424;2023-06-22T03:44:33;25.60;;;11.90;;
8675;SDS011;4375;52.486;13.424;2023-06-22T03:47:01;27.87;;;12.90;;
8675;SDS011;4375;52.486;13.424;2023-06-22T03:49:28;27.70;;;12.83;;
8675;SDS011;4375;52.486;13.424;2023-06-22T03:51:53;25.67;;;11.30;;
8675;SDS011;4375;52.486;13.424;2023-06-22T03:54:19;27.97;;;11.20;;
8675;SDS011;4375;52.486;13.424;2023-06-22T03:56:44;28.53;;;11.17;;
8675;SDS011;4375;52.486;13.424;2023-06-22T03:59:10;25.97;;;10.33;;
8675;SDS011;4375;52.486;13.424;2023-06-22T04:01:36;27.03;;;10.40;;
8675;SDS011;4375;52.486;13.424;2023-06-22T04:04:02;25.20;;;10.53;;
8675;SDS011;4375;52.486;13.424;2023-06-22T04:06:27;23.23;;;9.37;;
8675;SDS011;4375;52.486;13.424;2023-06-22T04:08:53;23.27;;;10.00;;
8675;SDS011;4375;52.486;13.424;2023-06-22T04:11:18;25.50;;;10.03;;
8675;SDS011;4375;52.486;13.424;2023-06-22T04:13:44;23.90;;;8.93;;
8675;SDS011;4375;52.486;13.424;2023-06-22T04:16:10;21.97;;;9.13;;
8675;SDS011;4375;52.486;13.424;2023-06-22T04:18:35;20.20;;;8.43;;
8675;SDS011;4375;52.486;13.424;2023-06-22T04:21:01;24.07;;;9.27;;
8675;SDS011;4375;52.486;13.424;2023-06-22T04:23:28;23.50;;;8.80;;
8675;SDS011;4375;52.486;13.424;2023-06-22T04:25:53;20.70;;;8.90;;
8675;SDS011;4375;52.486;13.424;2023-06-22T04:28:21;23.77;;;9.87;;
8675;SDS011;4375;52.486;13.424;2023-06-22T04:30:47;25.93;;;9.70;;
8675;SDS011;4375;52.486;13.424;2023-06-22T04:33:16;23.27;;;10.20;;
8675;SDS011;4375;52.486;13.424;2023-06-22T04:35:44;25.37;;;10.87;;
8675;SDS011;4375;52.486;13.424;2023-06-22T04:38:11;23.87;;;9.97;;
8675;SDS011;4375;52.486;13.424;2023-06-22T04:40:38;22.73;;;10.10;;
8675;SDS011;4375;52.486;13.424;2023-06-22T04:43:04;26.47;;;10.20;;
8675;SDS011;4375;52.486;13.424;2023-06-22T04:45:31;22.60;;;9.10;;
8675;SDS011;4375;52.486;13.424;2023-06-22T04:48:02;23.37;;;8.37;;
8675;SDS011;4375;52.486;13.424;2023-06-22T04:50:29;23.77;;;8.60;;
8675;SDS011;4375;52.486;13.424;2023-06-22T04:52:54;24.20;;;8.30;;
8675;SDS011;4375;52.486;13.424;2023-06-22T04:55:20;21.90;;;8.70;;
8675;SDS011;4375;52.486;13.424;2023-06-22T04:57:46;27.70;;;8.70;;
8675;SDS011;4375;52.486;13.424;2023-06-22T05:00:16;22.53;;;8.30;;
8675;SDS011;4375;52.486;13.424;2023-06-22T05:02:43;23.17;;;8.70;;
8675;SDS011;4375;52.486;13.424;2023-06-22T05:05:10;20.90;;;7.80;;
8675;SDS011;4375;52.486;13.424;2023-06-22T05:07:39;20.33;;;7.53;;
8675;SDS011;4375;52.486;13.424;2023-06-22T05:10:08;21.37;;;8.17;;
8675;SDS011;4375;52.486;13.424;2023-06-22T05:12:40;20.80;;;8.77;;
8675;SDS011;4375;52.486;13.424;2023-06-22T05:15:09;24.33;;;9.20;;
8675;SDS011;4375;52.486;13.424;2023-06-22T05:17:35;24.40;;;7.90;;
8675;SDS011;4375;52.486;13.424;2023-06-22T05:20:07;23.67;;;8.93;;
8675;SDS011;4375;52.486;13.424;2023-06-22T05:22:34;21.20;;;8.77;;
8675;SDS011;4375;52.486;13.424;2023-06-22T05:25:00;29.13;;;8.60;;
8675;SDS011;4375;52.486;13.424;2023-06-22T05:27:25;23.13;;;8.33;;
8675;SDS011;4375;52.486;13.424;2023-06-22T05:29:51;25.10;;;9.47;;
8675;SDS011;4375;52.486;13.424;2023-06-22T05:32:16;22.30;;;8.90;;
8675;SDS011;4375;52.486;13.424;2023-06-22T05:34:43;26.70;;;8.80;;
8675;SDS011;4375;52.486;13.424;2023-06-22T05:37:09;22.03;;;8.90;;
8675;SDS011;4375;52.486;13.424;2023-06-22T05:39:35;22.73;;;8.73;;
8675;SDS011;4375;52.486;13.424;2023-06-22T05:42:03;22.87;;;8.23;;
8675;SDS011;4375;52.486;13.424;2023-06-22T05:44:30;21.20;;;7.20;;
8675;SDS011;4375;52.486;13.424;2023-06-22T05:46:56;20.97;;;7.57;;
8675;SDS011;4375;52.486;13.424;2023-06-22T05:49:21;22.77;;;7.20;;
8675;SDS011;4375;52.486;13.424;2023-06-22T05:51:49;19.23;;;6.50;;
8675;SDS011;4375;52.486;13.424;2023-06-22T05:54:14;19.37;;;6.77;;
8675;SDS011;4375;52.486;13.424;2023-06-22T05:56:42;22.00;;;7.10;;
8675;SDS011;4375;52.486;13.424;2023-06-22T05:59:08;20.77;;;7.07;;
8675;SDS011;4375;52.486;13.424;2023-06-22T06:01:34;23.60;;;7.50;;
8675;SDS011;4375;52.486;13.424;2023-06-22T06:04:00;25.70;;;7.03;;
8675;SDS011;4375;52.486;13.424;2023-06-22T06:06:27;22.17;;;7.00;;
8675;SDS011;4375;52.486;13.424;2023-06-22T06:08:53;24.10;;;7.40;;
8675;SDS011;4375;52.486;13.424;2023-06-22T06:11:19;21.43;;;6.70;;
8675;SDS011;4375;52.486;13.424;2023-06-22T06:13:45;21.17;;;6.83;;
8675;SDS011;4375;52.486;13.424;2023-06-22T06:16:11;21.57;;;7.13;;
8675;SDS011;4375;52.486;13.424;2023-06-22T06:18:36;21.77;;;6.10;;
8675;SDS011;4375;52.486;13.424;2023-06-22T06:21:02;23.13;;;6.97;;
8675;SDS011;4375;52.486;13.424;2023-06-22T06:23:28;21.83;;;5.90;;
8675;SDS011;4375;52.486;13.424;2023-06-22T06:25:53;23.50;;;5.00;;
8675;SDS011;4375;52.486;13.424;2023-06-22T06:28:19;20.20;;;5.60;;
8675;SDS011;4375;52.486;13.424;2023-06-22T06:30:45;19.70;;;6.13;;
8675;SDS011;4375;52.486;13.424;2023-06-22T06:33:12;18.47;;;6.10;;
8675;SDS011;4375;52.486;13.424;2023-06-22T06:35:38;19.23;;;5.80;;
8675;SDS011;4375;52.486;13.424;2023-06-22T06:38:03;18.77;;;5.80;;
8675;SDS011;4375;52.486;13.424;2023-06-22T06:40:29;19.90;;;5.87;;
8675;SDS011;4375;52.486;13.424;2023-06-22T06:42:55;19.40;;;5.23;;
8675;SDS011;4375;52.486;13.424;2023-06-22T06:45:21;22.53;;;6.40;;
8675;SDS011;4375;52.486;13.424;2023-06-22T06:47:48;18.70;;;6.23;;
8675;SDS011;4375;52.486;13.424;2023-06-22T06:50:15;20.53;;;6.40;;
8675;SDS011;4375;52.486;13.424;2023-06-22T06:52:41;19.47;;;6.03;;
8675;SDS011;4375;52.486;13.424;2023-06-22T06:55:07;20.33;;;6.17;;
8675;SDS011;4375;52.486;13.424;2023-06-22T06:57:36;20.30;;;5.33;;
8675;SDS011;4375;52.486;13.424;2023-06-22T07:00:03;17.83;;;5.20;;
8675;SDS011;4375;52.486;13.424;2023-06-22T07:02:34;19.47;;;4.97;;
8675;SDS011;4375;52.486;13.424;2023-06-22T07:05:00;17.90;;;4.90;;
8675;SDS011;4375;52.486;13.424;2023-06-22T07:07:28;22.10;;;4.90;;
8675;SDS011;4375;52.486;13.424;2023-06-22T07:09:54;20.57;;;4.87;;
8675;SDS011;4375;52.486;13.424;2023-06-22T07:12:19;17.93;;;4.23;;
8675;SDS011;4375;52.486;13.424;2023-06-22T07:14:46;20.90;;;4.13;;
8675;SDS011;4375;52.486;13.424;2023-06-22T07:17:11;18.10;;;4.37;;
8675;SDS011;4375;52.486;13.424;2023-06-22T07:19:37;17.70;;;4.40;;
8675;SDS011;4375;52.486;13.424;2023-06-22T07:22:03;21.10;;;4.43;;
8675;SDS011;4375;52.486;13.424;2023-06-22T07:24:29;21.80;;;4.00;;
8675;SDS011;4375;52.486;13.424;2023-06-22T07:26:55;17.20;;;3.60;;
8675;SDS011;4375;52.486;13.424;2023-06-22T07:29:24;16.90;;;4.00;;
8675;SDS011;4375;52.486;13.424;2023-06-22T07:31:50;19.13;;;3.70;;
8675;SDS011;4375;52.486;13.424;2023-06-22T07:34:21;20.87;;;4.23;;
8675;SDS011;4375;52.486;13.424;2023-06-22T07:36:47;18.60;;;3.80;;
8675;SDS011;4375;52.486;13.424;2023-06-22T07:39:12;15.80;;;3.87;;
8675;SDS011;4375;52.486;13.424;2023-06-22T07:41:39;17.07;;;3.77;;
8675;SDS011;4375;52.486;13.424;2023-06-22T07:44:08;21.17;;;4.40;;
8675;SDS011;4375;52.486;13.424;2023-06-22T07:46:33;18.20;;;4.10;;
8675;SDS011;4375;52.486;13.424;2023-06-22T07:48:59;19.77;;;3.97;;
8675;SDS011;4375;52.486;13.424;2023-06-22T07:51:26;18.53;;;4.40;;
8675;SDS011;4375;52.486;13.424;2023-06-22T07:53:52;18.83;;;3.80;;
8675;SDS011;4375;52.486;13.424;2023-06-22T07:56:17;18.20;;;4.17;;
8675;SDS011;4375;52.486;13.424;2023-06-22T07:58:46;17.87;;;4.10;;
8675;SDS011;4375;52.486;13.424;2023-06-22T08:01:13;18.50;;;4.10;;
8675;SDS011;4375;52.486;13.424;2023-06-22T08:03:39;23.80;;;4.40;;
8675;SDS011;4375;52.486;13.424;2023-06-22T08:06:06;18.30;;;4.10;;
8675;SDS011;4375;52.486;13.424;2023-06-22T08:08:34;16.17;;;3.80;;
8675;SDS011;4375;52.486;13.424;2023-06-22T08:11:02;19.30;;;3.67;;
8675;SDS011;4375;52.486;13.424;2023-06-22T08:13:28;19.27;;;3.60;;
8675;SDS011;4375;52.486;13.424;2023-06-22T08:15:54;16.83;;;3.47;;
8675;SDS011;4375;52.486;13.424;2023-06-22T08:18:20;16.00;;;3.33;;
8675;SDS011;4375;52.486;13.424;2023-06-22T08:20:45;17.67;;;3.40;;
8675;SDS011;4375;52.486;13.424;2023-06-22T08:23:11;18.83;;;3.67;;
8675;SDS011;4375;52.486;13.424;2023-06-22T08:25:40;17.20;;;3.13;;
8675;SDS011;4375;52.486;13.424;2023-06-22T08:28:05;15.27;;;3.40;;
8675;SDS011;4375;52.486;13.424;2023-06-22T08:30:32;17.40;;;3.37;;
8675;SDS011;4375;52.486;13.424;2023-06-22T08:32:57;17.17;;;4.00;;
8675;SDS011;4375;52.486;13.424;2023-06-22T08:35:23;16.03;;;3.77;;
8675;SDS011;4375;52.486;13.424;2023-06-22T08:37:49;16.47;;;3.93;;
8675;SDS011;4375;52.486;13.424;2023-06-22T08:40:18;16.33;;;3.73;;
8675;SDS011;4375;52.486;13.424;2023-06-22T08:42:44;18.40;;;3.80;;
8675;SDS011;4375;52.486;13.424;2023-06-22T08:45:10;18.43;;;3.90;;
8675;SDS011;4375;52.486;13.424;2023-06-22T08:47:37;17.63;;;4.10;;
8675;SDS011;4375;52.486;13.424;2023-06-22T08:50:03;17.00;;;4.37;;
8675;SDS011;4375;52.486;13.424;2023-06-22T08:52:29;15.90;;;3.40;;
8675;SDS011;4375;52.486;13.424;2023-06-22T08:54:55;21.03;;;4.63;;
8675;SDS011;4375;52.486;13.424;2023-06-22T08:57:21;15.97;;;3.50;;
8675;SDS011;4375;52.486;13.424;2023-06-22T08:59:47;18.83;;;4.27;;
8675;SDS011;4375;52.486;13.424;2023-06-22T09:02:13;16.37;;;3.60;;
8675;SDS011;4375;52.486;13.424;2023-06-22T09:04:38;15.73;;;3.57;;
8675;SDS011;4375;52.486;13.424;2023-06-22T09:07:04;18.63;;;3.50;;
8675;SDS011;4375;52.486;13.424;2023-06-22T09:09:30;17.37;;;3.60;;
8675;SDS011;4375;52.486;13.424;2023-06-22T09:11:55;16.20;;;3.53;;
8675;SDS011;4375;52.486;13.424;2023-06-22T09:14:21;16.13;;;3.13;;
8675;SDS011;4375;52.486;13.424;2023-06-22T09:16:47;15.80;;;3.57;;
8675;SDS011;4375;52.486;13.424;2023-06-22T09:19:13;16.40;;;4.00;;
8675;SDS011;4375;52.486;13.424;2023-06-22T09:21:38;18.53;;;4.10;;
8675;SDS011;4375;52.486;13.424;2023-06-22T09:24:04;17.17;;;4.53;;
8675;SDS011;4375;52.486;13.424;2023-06-22T09:26:30;17.00;;;3.60;;
8675;SDS011;4375;52.486;13.424;2023-06-22T09:28:56;17.53;;;4.40;;
8675;SDS011;4375;52.486;13.424;2023-06-22T09:31:21;16.50;;;3.50;;
8675;SDS011;4375;52.486;13.424;2023-06-22T09:33:55;16.73;;;3.70;;
8675;SDS011;4375;52.486;13.424;2023-06-22T09:36:21;17.80;;;4.30;;
8675;SDS011;4375;52.486;13.424;2023-06-22T09:38:49;16.40;;;4.13;;
8675;SDS011;4375;52.486;13.424;2023-06-22T09:41:20;17.30;;;4.07;;
8675;SDS011;4375;52.486;13.424;2023-06-22T09:43:45;17.53;;;3.67;;
8675;SDS011;4375;52.486;13.424;2023-06-22T09:46:13;17.20;;;3.90;;
8675;SDS011;4375;52.486;13.424;2023-06-22T09:48:40;17.83;;;4.43;;
8675;SDS011;4375;52.486;13.424;2023-06-22T09:51:05;17.00;;;4.27;;
8675;SDS011;4375;52.486;13.424;2023-06-22T09:53:31;17.73;;;4.13;;
8675;SDS011;4375;52.486;13.424;2023-06-22T09:55:57;17.60;;;3.70;;
8675;SDS011;4375;52.486;13.424;2023-06-22T09:58:22;18.80;;;3.57;;
8675;SDS011;4375;52.486;13.424;2023-06-22T10:00:48;19.47;;;3.83;;
8675;SDS011;4375;52.486;13.424;2023-06-22T10:03:14;16.17;;;3.90;;
8675;SDS011;4375;52.486;13.424;2023-06-22T10:05:39;15.50;;;4.00;;
8675;SDS011;4375;52.486;13.424;2023-06-22T10:08:05;19.30;;;4.03;;
8675;SDS011;4375;52.486;13.424;2023-06-22T10:10:32;17.47;;;4.20;;
8675;SDS011;4375;52.486;13.424;2023-06-22T10:13:02;17.30;;;4.37;;
8675;SDS011;4375;52.486;13.424;2023-06-22T10:15:34;22.13;;;6.93;;
8675;SDS011;4375;52.486;13.424;2023-06-22T10:17:59;15.73;;;3.67;;
8675;SDS011;4375;52.486;13.424;2023-06-22T10:20:25;18.47;;;5.00;;
8675;SDS011;4375;52.486;13.424;2023-06-22T10:22:51;15.50;;;3.90;;
8675;SDS011;4375;52.486;13.424;2023-06-22T10:25:17;17.10;;;4.37;;
8675;SDS011;4375;52.486;13.424;2023-06-22T10:27:42;16.70;;;4.27;;
8675;SDS011;4375;52.486;13.424;2023-06-22T10:30:10;16.57;;;4.00;;
8675;SDS011;4375;52.486;13.424;2023-06-22T10:32:38;16.63;;;4.20;;
8675;SDS011;4375;52.486;13.424;2023-06-22T10:35:04;16.17;;;3.97;;
8675;SDS011;4375;52.486;13.424;2023-06-22T10:37:30;16.87;;;4.10;;
8675;SDS011;4375;52.486;13.424;2023-06-22T10:39:56;17.50;;;4.77;;
8675;SDS011;4375;52.486;13.424;2023-06-22T10:42:22;15.90;;;3.50;;
8675;SDS011;4375;52.486;13.424;2023-06-22T10:44:47;19.40;;;4.33;;
8675;SDS011;4375;52.486;13.424;2023-06-22T10:47:13;16.60;;;4.10;;
8675;SDS011;4375;52.486;13.424;2023-06-22T10:49:39;17.63;;;3.93;;
8675;SDS011;4375;52.486;13.424;2023-06-22T10:52:08;16.50;;;4.20;;
8675;SDS011;4375;52.486;13.424;2023-06-22T10:54:34;14.70;;;3.20;;
8675;SDS011;4375;52.486;13.424;2023-06-22T10:57:01;16.10;;;3.97;;
8675;SDS011;4375;52.486;13.424;2023-06-22T10:59:28;16.23;;;4.03;;
8675;SDS011;4375;52.486;13.424;2023-06-22T11:01:57;18.40;;;5.10;;
8675;SDS011;4375;52.486;13.424;2023-06-22T11:04:23;15.60;;;3.60;;
8675;SDS011;4375;52.486;13.424;2023-06-22T11:06:49;15.60;;;3.63;;
8675;SDS011;4375;52.486;13.424;2023-06-22T11:09:15;16.60;;;4.10;;
8675;SDS011;4375;52.486;13.424;2023-06-22T11:11:47;16.40;;;4.10;;
8675;SDS011;4375;52.486;13.424;2023-06-22T11:14:14;15.60;;;3.40;;
8675;SDS011;4375;52.486;13.424;2023-06-22T11:16:40;20.70;;;5.30;;
8675;SDS011;4375;52.486;13.424;2023-06-22T11:19:05;15.90;;;3.63;;
8675;SDS011;4375;52.486;13.424;2023-06-22T11:21:31;18.73;;;4.83;;
8675;SDS011;4375;52.486;13.424;2023-06-22T11:23:57;16.97;;;4.50;;
8675;SDS011;4375;52.486;13.424;2023-06-22T11:26:24;18.13;;;4.50;;
8675;SDS011;4375;52.486;13.424;2023-06-22T11:28:52;18.63;;;4.23;;
8675;SDS011;4375;52.486;13.424;2023-06-22T11:31:18;17.43;;;4.40;;
8675;SDS011;4375;52.486;13.424;2023-06-22T11:33:43;17.80;;;4.33;;
8675;SDS011;4375;52.486;13.424;2023-06-22T11:36:10;17.77;;;5.20;;
8675;SDS011;4375;52.486;13.424;2023-06-22T11:38:36;17.87;;;3.80;;
8675;SDS011;4375;52.486;13.424;2023-06-22T11:41:04;16.30;;;3.97;;
8675;SDS011;4375;52.486;13.424;2023-06-22T11:43:33;18.63;;;3.67;;
8675;SDS011;4375;52.486;13.424;2023-06-22T11:46:00;16.43;;;3.80;;
8675;SDS011;4375;52.486;13.424;2023-06-22T11:48:29;16.20;;;3.70;;
8675;SDS011;4375;52.486;13.424;2023-06-22T11:50:55;22.43;;;10.00;;
8675;SDS011;4375;52.486;13.424;2023-06-22T11:53:24;18.63;;;4.30;;
8675;SDS011;4375;52.486;13.424;2023-06-22T11:55:51;17.93;;;3.83;;
8675;SDS011;4375;52.486;13.424;2023-06-22T11:58:19;17.10;;;4.27;;
8675;SDS011;4375;52.486;13.424;2023-06-22T12:00:44;15.40;;;3.57;;
8675;SDS011;4375;52.486;13.424;2023-06-22T12:03:10;15.97;;;3.70;;
8675;SDS011;4375;52.486;13.424;2023-06-22T12:05:36;17.10;;;4.57;;
8675;SDS011;4375;52.486;13.424;2023-06-22T12:08:03;15.90;;;3.70;;
8675;SDS011;4375;52.486;13.424;2023-06-22T12:10:28;17.13;;;4.20;;
8675;SDS011;4375;52.486;13.424;2023-06-22T12:12:54;17.33;;;4.50;;
8675;SDS011;4375;52.486;13.424;2023-06-22T12:15:20;20.73;;;8.23;;
8675;SDS011;4375;52.486;13.424;2023-06-22T12:17:46;16.93;;;4.83;;
8675;SDS011;4375;52.486;13.424;2023-06-22T12:20:13;17.03;;;4.50;;
8675;SDS011;4375;52.486;13.424;2023-06-22T12:22:39;19.10;;;4.50;;
8675;SDS011;4375;52.486;13.424;2023-06-22T12:25:06;17.90;;;4.17;;
8675;SDS011;4375;52.486;13.424;2023-06-22T12:27:32;17.30;;;4.90;;
8675;SDS011;4375;52.486;13.424;2023-06-22T12:29:58;18.00;;;4.77;;
8675;SDS011;4375;52.486;13.424;2023-06-22T12:32:24;20.40;;;4.90;;
8675;SDS011;4375;52.486;13.424;2023-06-22T12:34:50;16.57;;;4.07;;
8675;SDS011;4375;52.486;13.424;2023-06-22T12:37:16;15.90;;;4.07;;
8675;SDS011;4375;52.486;13.424;2023-06-22T12:39:42;17.20;;;4.33;;
8675;SDS011;4375;52.486;13.424;2023-06-22T12:42:08;18.13;;;5.40;;
8675;SDS011;4375;52.486;13.424;2023-06-22T12:44:37;21.30;;;5.30;;
8675;SDS011;4375;52.486;13.424;2023-06-22T12:47:03;18.10;;;5.20;;
8675;SDS011;4375;52.486;13.424;2023-06-22T12:49:29;18.00;;;5.30;;
8675;SDS011;4375;52.486;13.424;2023-06-22T12:51:54;19.80;;;5.83;;
8675;SDS011;4375;52.486;13.424;2023-06-22T12:54:20;19.87;;;5.97;;
8675;SDS011;4375;52.486;13.424;2023-06-22T12:56:46;21.10;;;4.90;;
8675;SDS011;4375;52.486;13.424;2023-06-22T12:59:12;21.03;;;5.13;;
8675;SDS011;4375;52.486;13.424;2023-06-22T13:01:42;20.50;;;5.10;;
8675;SDS011;4375;52.486;13.424;2023-06-22T13:04:09;17.60;;;4.70;;
8675;SDS011;4375;52.486;13.424;2023-06-22T13:06:43;17.67;;;5.07;;
8675;SDS011;4375;52.486;13.424;2023-06-22T13:09:13;17.97;;;4.90;;
8675;SDS011;4375;52.486;13.424;2023-06-22T13:11:40;18.03;;;4.90;;
8675;SDS011;4375;52.486;13.424;2023-06-22T13:14:06;20.53;;;4.20;;
8675;SDS011;4375;52.486;13.424;2023-06-22T13:16:34;16.40;;;4.67;;
8675;SDS011;4375;52.486;13.424;2023-06-22T13:19:00;18.00;;;4.70;;
8675;SDS011;4375;52.486;13.424;2023-06-22T13:21:26;17.57;;;4.53;;
8675;SDS011;4375;52.486;13.424;2023-06-22T13:23:51;18.17;;;5.27;;
8675;SDS011;4375;52.486;13.424;2023-06-22T13:26:17;17.57;;;4.73;;
8675;SDS011;4375;52.486;13.424;2023-06-22T13:28:43;18.67;;;4.90;;
8675;SDS011;4375;52.486;13.424;2023-06-22T13:31:08;17.00;;;5.17;;
8675;SDS011;4375;52.486;13.424;2023-06-22T13:33:34;17.60;;;4.93;;
8675;SDS011;4375;52.486;13.424;2023-06-22T13:35:59;18.20;;;5.93;;
8675;SDS011;4375;52.486;13.424;2023-06-22T13:38:25;18.87;;;5.40;;
8675;SDS011;4375;52.486;13.424;2023-06-22T13:40:51;19.87;;;5.87;;
8675;SDS011;4375;52.486;13.424;2023-06-22T13:43:16;16.77;;;4.93;;
8675;SDS011;4375;52.486;13.424;2023-06-22T13:45:42;16.87;;;4.90;;
8675;SDS011;4375;52.486;13.424;2023-06-22T13:48:08;17.60;;;5.40;;
8675;SDS011;4375;52.486;13.424;2023-06-22T13:50:34;18.47;;;5.50;;
8675;SDS011;4375;52.486;13.424;2023-06-22T13:53:00;17.47;;;4.93;;
8675;SDS011;4375;52.486;13.424;2023-06-22T13:55:26;16.80;;;5.10;;
8675;SDS011;4375;52.486;13.424;2023-06-22T13:57:52;16.70;;;5.27;;
8675;SDS011;4375;52.486;13.424;2023-06-22T14:00:18;18.23;;;5.90;;
8675;SDS011;4375;52.486;13.424;2023-06-22T14:02:47;22.53;;;9.63;;
8675;SDS011;4375;52.486;13.424;2023-06-22T14:05:12;19.93;;;6.90;;
8675;SDS011;4375;52.486;13.424;2023-06-22T14:07:38;17.90;;;5.50;;
8675;SDS011;4375;52.486;13.424;2023-06-22T14:10:07;17.93;;;5.33;;
8675;SDS011;4375;52.486;13.424;2023-06-22T14:12:35;22.90;;;8.40;;
8675;SDS011;4375;52.486;13.424;2023-06-22T14:15:01;18.50;;;5.80;;
8675;SDS011;4375;52.486;13.424;2023-06-22T14:17:26;20.30;;;5.97;;
8675;SDS011;4375;52.486;13.424;2023-06-22T14:19:52;17.20;;;5.40;;
8675;SDS011;4375;52.486;13.424;2023-06-22T14:22:18;20.77;;;6.47;;
8675;SDS011;4375;52.486;13.424;2023-06-22T14:24:45;22.23;;;6.73;;
8675;SDS011;4375;52.486;13.424;2023-06-22T14:27:11;19.87;;;5.30;;
8675;SDS011;4375;52.486;13.424;2023-06-22T14:29:36;18.50;;;5.37;;
8675;SDS011;4375;52.486;13.424;2023-06-22T14:32:02;18.80;;;5.87;;
8675;SDS011;4375;52.486;13.424;2023-06-22T14:34:29;20.77;;;5.50;;
8675;SDS011;4375;52.486;13.424;2023-06-22T14:36:55;17.53;;;5.00;;
8675;SDS011;4375;52.486;13.424;2023-06-22T14:39:20;21.80;;;5.50;;
8675;SDS011;4375;52.486;13.424;2023-06-22T14:41:46;17.83;;;4.30;;
8675;SDS011;4375;52.486;13.424;2023-06-22T14:44:11;17.13;;;5.00;;
8675;SDS011;4375;52.486;13.424;2023-06-22T14:46:37;16.23;;;4.57;;
8675;SDS011;4375;52.486;13.424;2023-06-22T14:49:03;19.70;;;5.40;;
8675;SDS011;4375;52.486;13.424;2023-06-22T14:51:29;18.37;;;5.43;;
8675;SDS011;4375;52.486;13.424;2023-06-22T14:53:54;17.40;;;4.80;;